Time;durP1;ratioP1;P1;durP2;ratioP2;P2;SDS_P1;SDS_P2;PMS_P1;PMS_P2;Temp;Humidity;BMP_temperature;BMP_pressure;BME280_temperature;BME280_humidity;BME280_pressure;Samples;Min_cycle;Max_cycle;Signal;HPM_P1;HPM_P2
2021/07/02 00:01:50;;;;;;;4.92;4.53;;;;;;;27.41;62.71;98892.15;1784191;79;21042;-68
2021/07/02 00:04:16;;;;;;;6.08;4.30;;;;;;;27.39;62.63;98895.73;1785923;79;23219;-67
2021/07/02 00:06:44;;;;;;;6.00;4.60;;;;;;;27.38;62.64;98896.86;1794616;79;21503;-68
2021/07/02 00:09:11;;;;;;;7.00;5.10;;;;;;;27.37;62.79;98901.51;1780351;79;21527;-68
2021/07/02 00:11:37;;;;;;;5.70;5.08;;;;;;;27.38;62.85;98898.22;1788196;79;21128;-68
2021/07/02 00:14:04;;;;;;;6.97;4.92;;;;;;;27.38;63.03;98899.58;1781224;78;21035;-68
2021/07/02 00:16:33;;;;;;;8.95;5.67;;;;;;;27.38;62.96;98892.77;1781155;79;21072;-68
2021/07/02 00:18:59;;;;;;;5.87;4.97;;;;;;;27.38;62.91;98884.59;1794160;78;21022;-69
2021/07/02 00:21:26;;;;;;;7.42;6.00;;;;;;;27.38;62.99;98888.67;1793877;79;21051;-68
2021/07/02 00:23:52;;;;;;;8.28;6.00;;;;;;;27.37;63.01;98892.50;1782381;79;21087;-68
2021/07/02 00:26:18;;;;;;;8.80;5.17;;;;;;;27.37;63.22;98889.23;1794185;79;21037;-68
2021/07/02 00:28:45;;;;;;;7.97;5.53;;;;;;;27.38;63.35;98883.22;1787093;79;22340;-67
2021/07/02 00:31:11;;;;;;;5.45;4.95;;;;;;;27.38;63.53;98882.66;1784461;79;21554;-67
2021/07/02 00:33:38;;;;;;;6.92;6.08;;;;;;;27.40;63.65;98883.73;1736139;82;21041;-68
2021/07/02 00:36:04;;;;;;;6.45;5.42;;;;;;;27.41;63.74;98887.52;1749549;80;21078;-69
2021/07/02 00:38:32;;;;;;;8.00;5.20;;;;;;;27.41;63.78;98884.80;1752859;80;20992;-67
2021/07/02 00:40:59;;;;;;;9.08;5.35;;;;;;;27.42;63.82;98882.88;1744794;80;21816;-68
2021/07/02 00:43:26;;;;;;;5.42;4.72;;;;;;;27.42;63.86;98890.49;1745487;80;21094;-69
2021/07/02 00:45:53;;;;;;;6.45;5.85;;;;;;;27.43;63.95;98895.41;1752559;80;21037;-68
2021/07/02 00:48:20;;;;;;;6.95;5.83;;;;;;;27.44;63.80;98898.38;1742713;82;21648;-69
2021/07/02 00:50:46;;;;;;;7.03;5.67;;;;;;;27.45;63.89;98894.55;1731310;82;21100;-68
2021/07/02 00:53:13;;;;;;;5.65;5.15;;;;;;;27.45;63.88;98880.36;1749849;80;21085;-68
2021/07/02 00:55:43;;;;;;;8.10;5.72;;;;;;;27.46;63.74;98880.59;1731383;80;21047;-68
2021/07/02 00:58:11;;;;;;;6.78;5.03;;;;;;;27.46;63.65;98883.33;1726693;82;21044;-67
2021/07/02 01:00:38;;;;;;;5.90;5.30;;;;;;;27.45;63.45;98868.65;1729037;80;21735;-69
2021/07/02 01:03:05;;;;;;;6.25;5.40;;;;;;;27.44;63.31;98873.83;1742916;82;21533;-68
2021/07/02 01:05:34;;;;;;;9.75;5.90;;;;;;;27.43;63.21;98868.94;1728555;82;22586;-67
2021/07/02 01:08:01;;;;;;;8.08;5.60;;;;;;;27.42;63.10;98866.51;1706605;82;21138;-67
2021/07/02 01:10:28;;;;;;;6.37;5.78;;;;;;;27.41;63.05;98862.98;1761322;79;21049;-67
2021/07/02 01:12:55;;;;;;;6.92;6.00;;;;;;;27.41;63.08;98863.52;1789030;79;21420;-68
2021/07/02 01:15:23;;;;;;;6.87;6.17;;;;;;;27.39;62.96;98855.66;1785898;79;21029;-68
2021/07/02 01:17:52;;;;;;;7.22;5.62;;;;;;;27.39;62.90;98854.83;1786087;79;21120;-68
2021/07/02 01:20:20;;;;;;;6.83;5.78;;;;;;;27.36;62.94;98850.80;1786971;79;21030;-68
2021/07/02 01:22:48;;;;;;;7.10;5.83;;;;;;;27.36;62.84;98860.34;1783120;79;21112;-68
2021/07/02 01:25:14;;;;;;;6.67;6.05;;;;;;;27.36;62.88;98856.81;1785785;78;21032;-67
2021/07/02 01:27:41;;;;;;;10.03;5.75;;;;;;;27.34;62.81;98848.13;1792630;79;21042;-68
2021/07/02 01:30:10;;;;;;;10.25;6.12;;;;;;;27.31;62.73;98846.78;1783890;79;21133;-68
2021/07/02 01:32:38;;;;;;;6.45;5.80;;;;;;;27.30;62.58;98845.74;1788565;79;21054;-68
2021/07/02 01:35:05;;;;;;;6.40;5.53;;;;;;;27.28;62.64;98846.60;1785023;79;21032;-68
2021/07/02 01:37:32;;;;;;;7.37;6.20;;;;;;;27.25;62.57;98844.73;1796055;79;21034;-67
2021/07/02 01:40:01;;;;;;;9.85;5.90;;;;;;;27.24;62.55;98849.09;1793135;79;21740;-68
2021/07/02 01:42:27;;;;;;;6.08;5.47;;;;;;;27.22;62.55;98850.74;1781228;79;23258;-68
2021/07/02 01:44:55;;;;;;;6.58;5.87;;;;;;;27.21;62.50;98865.47;1778143;79;21037;-68
2021/07/02 01:47:22;;;;;;;6.45;5.80;;;;;;;27.18;62.41;98866.08;1783287;79;21033;-68
2021/07/02 01:49:49;;;;;;;6.85;5.85;;;;;;;27.16;62.52;98856.56;1781456;79;21060;-68
2021/07/02 01:52:18;;;;;;;7.92;6.22;;;;;;;27.16;62.58;98866.94;1792095;79;21975;-69
2021/07/02 01:54:45;;;;;;;8.45;6.22;;;;;;;27.16;62.55;98877.84;1781135;79;21086;-68
2021/07/02 01:57:23;;;;;;;6.15;5.55;;;;;;;27.15;62.49;98884.39;1780759;79;21023;-68
2021/07/02 01:59:50;;;;;;;8.45;6.45;;;;;;;27.14;62.51;98881.95;1780600;79;21022;-67
2021/07/02 02:02:18;;;;;;;6.12;5.25;;;;;;;27.15;62.69;98889.04;1799426;79;21076;-67
2021/07/02 02:04:46;;;;;;;6.40;5.72;;;;;;;27.15;62.79;98891.77;1784468;79;21546;-67
2021/07/02 02:07:13;;;;;;;7.28;6.05;;;;;;;27.16;62.85;98892.84;1739848;81;21199;-67
2021/07/02 02:09:42;;;;;;;7.90;6.22;;;;;;;27.17;62.79;98889.55;1775153;80;21056;-67
2021/07/02 02:12:10;;;;;;;9.08;6.03;;;;;;;27.18;62.70;98898.80;1777684;79;21016;-67
2021/07/02 02:14:40;;;;;;;6.95;5.92;;;;;;;27.18;62.60;98897.44;1772345;79;21065;-67
2021/07/02 02:17:09;;;;;;;6.55;5.90;;;;;;;27.18;62.70;98896.08;1780289;79;21057;-68
2021/07/02 02:19:37;;;;;;;6.75;6.15;;;;;;;27.19;62.67;98903.69;1778106;79;21173;-69
2021/07/02 02:22:04;;;;;;;6.85;6.05;;;;;;;27.19;62.54;98903.13;1781701;79;21132;-67
2021/07/02 02:24:32;;;;;;;7.28;5.87;;;;;;;27.19;62.46;98897.67;1776637;78;21104;-67
2021/07/02 02:27:00;;;;;;;11.38;9.23;;;;;;;27.17;62.35;98897.17;1786044;79;21084;-68
2021/07/02 02:29:28;;;;;;;10.05;9.10;;;;;;;27.17;62.21;98897.73;1774755;78;21631;-68
2021/07/02 02:31:56;;;;;;;10.08;8.20;;;;;;;27.16;62.12;98909.19;1746300;80;22315;-68
2021/07/02 02:34:22;;;;;;;9.50;7.83;;;;;;;27.15;62.08;98907.56;1775521;79;21466;-67
2021/07/02 02:36:50;;;;;;;10.43;7.75;;;;;;;27.14;61.98;98906.48;1769011;80;21112;-67
2021/07/02 02:39:17;;;;;;;8.63;7.62;;;;;;;27.14;61.92;98911.41;1765643;79;22065;-68
2021/07/02 02:41:44;;;;;;;11.88;7.92;;;;;;;27.13;61.90;98908.41;1784631;79;20999;-68
2021/07/02 02:44:11;;;;;;;10.60;7.33;;;;;;;27.13;61.84;98905.69;1786352;79;21167;-67
2021/07/02 02:46:38;;;;;;;8.23;7.15;;;;;;;27.12;61.79;98900.53;1779015;79;21562;-68
2021/07/02 02:49:05;;;;;;;9.20;7.47;;;;;;;27.11;61.72;98905.18;1781934;79;21042;-68
2021/07/02 02:51:31;;;;;;;8.23;7.12;;;;;;;27.10;61.76;98903.58;1780750;80;21029;-69
2021/07/02 02:53:59;;;;;;;9.40;7.78;;;;;;;27.10;61.80;98904.11;1768304;79;21092;-68
2021/07/02 02:56:27;;;;;;;7.95;7.03;;;;;;;27.09;61.75;98912.84;1771487;79;21079;-69
2021/07/02 02:58:53;;;;;;;7.37;6.67;;;;;;;27.08;61.69;98918.03;1786223;79;21089;-68
2021/07/02 03:01:21;;;;;;;7.00;6.30;;;;;;;27.08;61.67;98916.66;1773269;79;21046;-68
2021/07/02 03:03:49;;;;;;;8.80;7.65;;;;;;;27.10;61.93;98928.64;1740510;78;21105;-68
2021/07/02 03:06:15;;;;;;;6.62;6.00;;;;;;;27.11;61.86;98932.44;1792860;78;21568;-68
2021/07/02 03:08:42;;;;;;;8.00;6.85;;;;;;;27.13;61.78;98930.78;1797631;78;21113;-69
2021/07/02 03:11:09;;;;;;;10.50;8.23;;;;;;;27.15;62.12;98939.47;1792472;78;21095;-68
2021/07/02 03:13:37;;;;;;;8.35;7.50;;;;;;;27.17;62.19;98936.70;1805215;78;21013;-69
2021/07/02 03:16:04;;;;;;;7.85;7.05;;;;;;;27.18;62.05;98931.52;1798129;78;21037;-68
2021/07/02 03:18:34;;;;;;;8.28;7.42;;;;;;;27.21;62.08;98932.83;1809476;78;21009;-69
2021/07/02 03:21:01;;;;;;;7.70;7.10;;;;;;;27.22;62.01;98933.09;1813475;78;21834;-68
2021/07/02 03:23:28;;;;;;;8.25;7.45;;;;;;;27.22;62.07;98932.53;1799418;78;22503;-69
2021/07/02 03:25:56;;;;;;;8.23;7.47;;;;;;;27.25;61.90;98939.33;1811111;78;21466;-69
2021/07/02 03:28:22;;;;;;;8.58;7.60;;;;;;;27.25;61.77;98941.52;1808335;78;21550;-68
2021/07/02 03:30:51;;;;;;;8.55;7.75;;;;;;;27.26;61.69;98943.13;1801324;78;21531;-68
2021/07/02 03:33:18;;;;;;;7.35;6.65;;;;;;;27.26;61.66;98936.88;1800565;78;21834;-68
2021/07/02 03:35:45;;;;;;;7.53;6.83;;;;;;;27.28;61.74;98937.94;1789012;78;21552;-67
2021/07/02 03:38:12;;;;;;;7.70;7.00;;;;;;;27.29;61.81;98943.64;1796127;78;21598;-69
2021/07/02 03:40:39;;;;;;;8.50;7.58;;;;;;;27.30;61.84;98943.34;1759484;80;21101;-68
2021/07/02 03:43:06;;;;;;;12.65;11.43;;;;;;;27.33;61.84;98944.66;1771139;80;21080;-68
2021/07/02 03:45:33;;;;;;;11.33;10.08;;;;;;;27.34;61.76;98940.27;1752731;80;21060;-68
2021/07/02 03:47:59;;;;;;;10.40;9.40;;;;;;;27.36;61.56;98942.70;1772198;80;21029;-69
2021/07/02 03:50:28;;;;;;;10.78;9.08;;;;;;;27.36;61.52;98950.33;1767457;80;21043;-68
2021/07/02 03:52:55;;;;;;;11.88;8.65;;;;;;;27.37;61.46;98950.59;1756192;80;21093;-67
2021/07/02 03:55:21;;;;;;;10.20;8.13;;;;;;;27.37;61.43;98950.59;1755833;80;21075;-68
2021/07/02 03:57:48;;;;;;;8.75;7.78;;;;;;;27.38;61.56;98942.66;1745146;81;21204;-68
2021/07/02 04:00:16;;;;;;;8.03;7.22;;;;;;;27.40;61.42;98940.44;1776999;80;21084;-68
2021/07/02 04:02:43;;;;;;;8.40;7.67;;;;;;;27.41;61.47;98937.14;1752991;81;21062;-68
2021/07/02 04:05:10;;;;;;;10.43;8.25;;;;;;;27.43;61.29;98941.78;1735600;82;21041;-68
2021/07/02 04:07:37;;;;;;;9.58;7.50;;;;;;;27.43;60.97;98941.78;1730896;81;21566;-69
2021/07/02 04:10:05;;;;;;;8.18;7.35;;;;;;;27.44;61.18;98952.92;1738068;81;21535;-68
2021/07/02 04:12:31;;;;;;;8.20;7.42;;;;;;;27.45;61.02;98946.38;1737752;81;21104;-67
2021/07/02 04:14:59;;;;;;;9.33;8.40;;;;;;;27.47;60.91;98955.06;1747619;81;21299;-69
2021/07/02 04:17:25;;;;;;;9.20;8.15;;;;;;;27.48;60.69;98957.23;1751348;81;21618;-70
2021/07/02 04:19:52;;;;;;;8.68;7.87;;;;;;;27.48;60.41;98955.87;1750370;81;21064;-69
2021/07/02 04:22:18;;;;;;;8.68;7.70;;;;;;;27.48;60.59;98955.30;1736677;81;21105;-69
2021/07/02 04:24:44;;;;;;;8.08;7.33;;;;;;;27.49;60.51;98958.84;1796484;78;21100;-68
2021/07/02 04:27:13;;;;;;;8.90;8.03;;;;;;;27.49;60.38;98951.48;1800077;78;21061;-69
2021/07/02 04:29:39;;;;;;;10.88;7.12;;;;;;;27.51;60.56;98952.55;1803069;78;21140;-69
2021/07/02 04:32:07;;;;;;;7.95;7.12;;;;;;;27.52;60.58;98959.05;1800644;78;21035;-68
2021/07/02 04:34:33;;;;;;;8.80;7.62;;;;;;;27.53;60.49;98953.06;1795392;78;21137;-68
2021/07/02 04:37:00;;;;;;;10.05;7.53;;;;;;;27.54;60.43;98946.48;1815555;78;21147;-68
2021/07/02 04:39:27;;;;;;;8.23;7.03;;;;;;;27.56;60.29;98945.62;1747474;80;21162;-69
2021/07/02 04:41:53;;;;;;;8.13;7.33;;;;;;;27.56;60.24;98946.98;1737892;81;22062;-69
2021/07/02 04:44:19;;;;;;;7.90;7.03;;;;;;;27.56;60.10;98942.33;1761468;80;21035;-68
2021/07/02 04:46:46;;;;;;;8.13;7.33;;;;;;;27.59;60.03;98950.49;1796874;78;21181;-69
2021/07/02 04:49:13;;;;;;;8.75;6.95;;;;;;;27.58;59.69;98943.41;1799069;78;21495;-69
2021/07/02 04:51:40;;;;;;;8.28;7.55;;;;;;;27.58;59.79;98938.78;1803332;78;21572;-69
2021/07/02 04:54:06;;;;;;;10.38;7.37;;;;;;;27.60;59.80;98938.45;1800090;78;21056;-68
2021/07/02 04:56:32;;;;;;;7.40;6.75;;;;;;;27.61;59.79;98938.16;1803120;78;20997;-69
2021/07/02 04:59:01;;;;;;;8.20;7.12;;;;;;;27.63;59.64;98947.42;1791005;78;21182;-69
2021/07/02 05:01:31;;;;;;;10.13;7.80;;;;;;;27.65;59.49;98954.19;1794225;78;21070;-68
2021/07/02 05:03:57;;;;;;;7.75;7.10;;;;;;;27.67;59.40;98947.06;1804925;78;21041;-69
2021/07/02 05:06:24;;;;;;;8.63;7.28;;;;;;;27.68;59.48;98943.24;1775042;79;21534;-68
2021/07/02 05:08:51;;;;;;;7.53;6.83;;;;;;;27.71;59.46;98946.72;1766866;79;21557;-68
2021/07/02 05:11:17;;;;;;;7.85;7.15;;;;;;;27.74;59.52;98947.48;1777175;79;21116;-68
2021/07/02 05:13:45;;;;;;;8.00;7.28;;;;;;;27.75;59.39;98945.00;1782642;78;21123;-69
2021/07/02 05:16:14;;;;;;;7.58;6.97;;;;;;;27.78;59.20;98946.34;1751137;79;21085;-69
2021/07/02 05:18:40;;;;;;;7.25;6.65;;;;;;;27.80;59.08;98941.39;1773636;79;21035;-68
2021/07/02 05:21:07;;;;;;;7.60;6.90;;;;;;;27.81;59.03;98941.06;1772550;79;21123;-68
2021/07/02 05:23:34;;;;;;;7.35;6.60;;;;;;;27.84;58.93;98947.30;1766849;80;21180;-68
2021/07/02 05:26:01;;;;;;;7.70;6.90;;;;;;;27.88;59.25;98942.61;1738204;82;21568;-69
2021/07/02 05:28:27;;;;;;;7.65;6.90;;;;;;;27.90;59.15;98948.03;1784391;79;21490;-68
2021/07/02 05:30:54;;;;;;;8.05;7.17;;;;;;;27.91;58.89;98946.11;1777753;80;20990;-67
2021/07/02 05:33:21;;;;;;;7.90;7.20;;;;;;;27.93;58.86;98944.72;1770197;79;21084;-69
2021/07/02 05:35:47;;;;;;;6.92;6.35;;;;;;;27.95;58.71;98950.68;1778999;80;21186;-68
2021/07/02 05:38:15;;;;;;;7.35;6.75;;;;;;;27.97;58.55;98949.82;1781918;79;20985;-68
2021/07/02 05:40:41;;;;;;;8.33;6.95;;;;;;;27.98;58.39;98954.15;1768909;79;21013;-68
2021/07/02 05:43:08;;;;;;;8.08;6.78;;;;;;;28.00;58.53;98954.66;1774959;79;21065;-69
2021/07/02 05:45:34;;;;;;;7.28;6.55;;;;;;;28.03;58.53;98962.25;1773095;78;21060;-69
2021/07/02 05:48:02;;;;;;;7.87;7.03;;;;;;;28.05;58.41;98952.40;1747526;81;21214;-69
2021/07/02 05:50:29;;;;;;;8.10;7.00;;;;;;;28.07;58.64;98952.91;1779730;78;21560;-68
2021/07/02 05:52:55;;;;;;;7.40;6.62;;;;;;;28.08;58.82;98955.88;1773645;79;21138;-69
2021/07/02 05:55:25;;;;;;;8.50;6.92;;;;;;;28.10;58.42;98955.58;1776773;79;21024;-69
2021/07/02 05:57:51;;;;;;;7.95;7.20;;;;;;;28.11;58.51;98959.94;1776695;79;21076;-69
2021/07/02 06:00:19;;;;;;;8.43;7.17;;;;;;;28.13;58.12;98964.53;1770423;79;21276;-71
2021/07/02 06:02:45;;;;;;;7.50;6.90;;;;;;;28.14;57.64;98964.77;1774281;79;21088;-69
2021/07/02 06:05:11;;;;;;;9.33;7.33;;;;;;;28.15;57.52;98959.58;1780626;79;21042;-70
2021/07/02 06:07:53;;;;;;;7.60;6.83;;;;;;;28.15;57.64;98962.31;1800053;79;21641;-69
2021/07/02 06:10:24;;;;;;;9.33;7.85;;;;;;;28.16;57.92;98966.11;1779974;79;21074;-68
2021/07/02 06:12:50;;;;;;;12.78;6.78;;;;;;;28.18;57.80;98964.41;1790444;79;21105;-70
2021/07/02 06:15:18;;;;;;;7.53;6.83;;;;;;;28.19;58.04;98964.12;1782340;79;21140;-69
2021/07/02 06:20:53;;;;;;;7.78;7.05;;;;;;;28.28;57.68;98977.05;1821951;76;23411;-68
2021/07/02 06:23:21;;;;;;;8.45;7.72;;;;;;;28.25;57.07;98973.02;1830401;77;21013;-69
2021/07/02 06:25:48;;;;;;;7.87;7.15;;;;;;;28.25;56.94;98978.48;1835019;77;21175;-69
2021/07/02 06:28:15;;;;;;;8.20;7.42;;;;;;;28.26;56.56;98969.19;1806413;78;21066;-69
2021/07/02 06:30:42;;;;;;;7.92;7.15;;;;;;;28.26;56.46;98965.09;1804173;78;21519;-68
2021/07/02 06:33:09;;;;;;;8.00;6.97;;;;;;;28.27;56.62;98966.69;1821293;77;20967;-68
2021/07/02 06:35:37;;;;;;;7.70;6.90;;;;;;;28.30;56.85;98968.00;1811758;78;20980;-68
2021/07/02 06:38:03;;;;;;;7.67;6.87;;;;;;;28.32;57.15;98971.23;1809445;77;21137;-69
2021/07/02 06:40:29;;;;;;;8.88;8.08;;;;;;;28.34;57.08;98969.03;1796245;78;20905;-69
2021/07/02 06:42:55;;;;;;;8.35;7.65;;;;;;;28.35;56.95;98974.17;1833075;77;21592;-69
2021/07/02 06:45:22;;;;;;;8.53;7.62;;;;;;;28.36;56.81;98966.23;1815231;77;21521;-68
2021/07/02 06:47:55;;;;;;;7.65;7.00;;;;;;;28.37;56.60;98961.58;1830313;77;21074;-69
2021/07/02 06:50:25;;;;;;;9.68;7.05;;;;;;;28.38;56.63;98966.73;1815435;77;21118;-71
2021/07/02 06:52:52;;;;;;;7.78;7.08;;;;;;;28.39;56.25;98973.80;1817949;78;20992;-71
2021/07/02 06:55:19;;;;;;;9.38;7.28;;;;;;;28.39;56.04;98969.70;1821707;77;21118;-71
2021/07/02 06:57:45;;;;;;;8.73;7.25;;;;;;;28.39;56.09;98973.80;1832586;77;21010;-71
2021/07/02 07:00:12;;;;;;;8.20;7.40;;;;;;;28.40;56.15;98967.24;1829691;77;21008;-72
2021/07/02 07:02:39;;;;;;;12.75;9.80;;;;;;;28.42;56.05;98968.31;1825645;78;21184;-72
2021/07/02 07:05:07;;;;;;;13.30;9.95;;;;;;;28.42;55.89;98964.21;1824240;77;21032;-72
2021/07/02 07:07:33;;;;;;;9.85;8.93;;;;;;;28.42;55.41;98960.12;1773987;78;21001;-72
2021/07/02 07:10:00;;;;;;;11.73;9.15;;;;;;;28.40;55.13;98960.41;1809517;78;21081;-72
2021/07/02 07:12:27;;;;;;;11.05;8.50;;;;;;;28.37;55.07;98965.11;1823585;77;21035;-72
2021/07/02 07:14:53;;;;;;;10.13;9.00;;;;;;;28.35;55.15;98957.78;1808163;78;21191;-71
2021/07/02 07:17:20;;;;;;;9.90;8.53;;;;;;;28.35;55.08;98961.88;1825278;77;20977;-72
2021/07/02 07:19:47;;;;;;;9.78;7.62;;;;;;;28.35;54.97;98960.51;1801196;78;21085;-72
2021/07/02 07:22:14;;;;;;;8.63;7.83;;;;;;;28.35;54.88;98961.08;1796005;78;21008;-71
2021/07/02 07:24:40;;;;;;;8.33;7.53;;;;;;;28.35;54.96;98956.41;1806560;78;21087;-71
2021/07/02 07:27:07;;;;;;;8.25;7.45;;;;;;;28.37;55.14;98954.19;1803295;78;21114;-71
2021/07/02 07:29:34;;;;;;;9.73;7.20;;;;;;;28.39;55.02;98964.25;1811403;78;20996;-72
2021/07/02 07:32:01;;;;;;;8.35;7.58;;;;;;;28.40;54.76;98960.41;1808332;78;21036;-71
2021/07/02 07:34:36;;;;;;;8.83;7.35;;;;;;;28.41;54.47;98959.31;1815894;78;21024;-72
2021/07/02 07:37:00;;;;;;;7.22;6.67;;;;;;;28.39;54.43;98949.22;1810310;78;21118;-71
2021/07/02 07:39:25;;;;;;;9.10;7.37;;;;;;;28.39;54.44;98952.52;1798102;78;22454;-70
2021/07/02 07:41:51;;;;;;;7.95;6.97;;;;;;;28.39;54.54;98951.16;1803201;78;21016;-70
2021/07/02 07:44:18;;;;;;;7.65;6.72;;;;;;;28.39;54.49;98951.16;1809139;78;20980;-69
2021/07/02 07:46:44;;;;;;;7.05;6.45;;;;;;;28.38;54.51;98955.02;1807530;78;21047;-69
2021/07/02 07:49:11;;;;;;;8.43;7.00;;;;;;;28.36;54.48;98956.67;1815387;78;21611;-69
2021/07/02 07:51:44;;;;;;;9.95;6.72;;;;;;;28.36;54.55;98964.07;1796882;79;21523;-71
2021/07/02 07:54:05;;;;;;;7.60;7.00;;;;;;;28.35;54.46;98966.53;1793980;78;21043;-70
2021/07/02 07:56:32;;;;;;;8.03;6.78;;;;;;;28.32;54.35;98969.33;1803388;78;21143;-70
2021/07/02 07:58:58;;;;;;;7.40;6.45;;;;;;;28.30;54.28;98970.20;1811243;78;22577;-71
2021/07/02 08:01:25;;;;;;;9.20;7.20;;;;;;;28.29;54.41;98971.30;1808475;78;21515;-70
2021/07/02 08:03:53;;;;;;;7.60;6.70;;;;;;;28.29;54.49;98967.77;1808863;77;21114;-71
2021/07/02 08:06:19;;;;;;;7.55;6.60;;;;;;;28.29;54.59;98963.09;1803672;78;21035;-68
2021/07/02 08:08:47;;;;;;;7.90;7.17;;;;;;;28.30;54.92;98960.64;1806797;78;21531;-71
2021/07/02 08:11:13;;;;;;;10.43;7.15;;;;;;;28.33;55.22;98960.57;1801907;78;21548;-72
2021/07/02 08:13:40;;;;;;;8.68;7.03;;;;;;;28.36;55.45;98966.80;1804994;77;21061;-67
2021/07/02 08:16:07;;;;;;;8.70;7.25;;;;;;;28.37;55.11;98965.11;1810729;77;21050;-67
2021/07/02 08:18:34;;;;;;;8.08;6.75;;;;;;;28.37;54.93;98969.20;1816135;77;21039;-67
2021/07/02 08:21:00;;;;;;;8.48;7.50;;;;;;;28.37;54.90;98973.30;1832691;76;21084;-65
2021/07/02 08:23:26;;;;;;;8.20;7.40;;;;;;;28.40;54.95;98977.37;1823058;78;21526;-66
2021/07/02 08:25:53;;;;;;;8.75;6.97;;;;;;;28.41;54.73;98980.34;1829757;77;21109;-67
2021/07/02 08:31:05;;;;;;;8.38;7.58;;;;;;;28.39;54.53;98995.66;1810265;76;21027;-65
2021/07/02 08:33:32;;;;;;;7.90;7.03;;;;;;;28.37;54.46;99000.61;1793202;79;21479;-67
2021/07/02 08:35:59;;;;;;;7.87;7.17;;;;;;;28.35;54.39;98996.02;1815866;78;21020;-69
2021/07/02 08:38:25;;;;;;;7.37;6.67;;;;;;;28.34;54.24;99000.44;1813049;78;20999;-66
2021/07/02 08:40:53;;;;;;;9.98;7.58;;;;;;;28.34;54.23;98998.51;1816235;78;21153;-67
2021/07/02 08:43:19;;;;;;;8.45;7.50;;;;;;;28.35;54.16;98999.31;1820038;78;21022;-66
2021/07/02 08:45:45;;;;;;;7.60;6.90;;;;;;;28.34;54.29;99002.61;1822766;78;21047;-66
2021/07/02 08:48:13;;;;;;;7.80;7.00;;;;;;;28.32;54.38;98996.64;1814785;78;21499;-66
2021/07/02 08:50:39;;;;;;;10.10;7.53;;;;;;;28.32;54.30;98995.28;1785674;78;20992;-66
2021/07/02 08:53:06;;;;;;;8.28;7.33;;;;;;;28.32;54.24;98995.81;1808202;78;21101;-65
2021/07/02 08:55:33;;;;;;;8.83;7.80;;;;;;;28.31;54.25;98990.91;1810484;78;21591;-65
2021/07/02 08:58:00;;;;;;;8.00;7.40;;;;;;;28.33;54.15;98986.52;1808507;78;20980;-67
2021/07/02 09:00:26;;;;;;;8.03;7.30;;;;;;;28.32;54.02;98984.89;1811194;78;21027;-66
2021/07/02 09:02:53;;;;;;;8.48;7.50;;;;;;;28.32;54.06;98988.45;1812158;78;21086;-68
2021/07/02 09:05:34;;;;;;;8.85;7.95;;;;;;;28.30;54.14;98986.58;1817917;78;21039;-67
2021/07/02 09:08:04;;;;;;;10.63;7.12;;;;;;;28.30;54.25;98985.21;1804271;78;21050;-67
2021/07/02 09:10:35;;;;;;;8.38;7.72;;;;;;;28.30;54.37;98985.21;1804470;78;21529;-65
2021/07/02 09:13:04;;;;;;;8.25;7.45;;;;;;;28.32;54.35;98985.72;1774811;78;21047;-66
2021/07/02 09:15:30;;;;;;;9.83;7.22;;;;;;;28.32;54.23;98984.35;1821506;78;21089;-67
2021/07/02 09:18:00;;;;;;;13.58;7.87;;;;;;;28.32;54.15;98984.35;1823248;78;21725;-67
2021/07/02 09:20:29;;;;;;;9.55;7.50;;;;;;;28.32;54.12;98987.62;1789764;79;21190;-66
2021/07/02 09:23:04;;;;;;;8.83;7.85;;;;;;;28.32;53.98;98991.71;1797304;78;21072;-66
2021/07/02 09:25:35;;;;;;;8.23;7.45;;;;;;;28.32;53.81;98995.81;1798443;77;21091;-66
2021/07/02 09:28:19;;;;;;;8.40;7.62;;;;;;;28.33;53.76;99014.63;1813575;76;21541;-67
2021/07/02 09:30:45;;;;;;;8.78;7.97;;;;;;;28.34;53.46;99005.91;1810923;77;21199;-68
2021/07/02 09:33:14;;;;;;;8.88;8.10;;;;;;;28.33;53.38;99004.27;1774266;79;21041;-68
2021/07/02 09:35:47;;;;;;;8.15;7.45;;;;;;;28.33;53.26;99005.07;1796558;79;21554;-67
2021/07/02 09:38:16;;;;;;;8.20;7.42;;;;;;;28.34;53.16;99004.53;1811208;77;20984;-66
2021/07/02 09:40:45;;;;;;;8.90;8.13;;;;;;;28.34;53.02;99009.44;1812917;78;21032;-67
2021/07/02 09:43:15;;;;;;;8.78;7.22;;;;;;;28.34;53.03;99020.36;1804126;77;21768;-67
2021/07/02 09:45:56;;;;;;;8.50;6.97;;;;;;;28.34;53.14;99004.53;1801787;78;21812;-66
2021/07/02 09:48:25;;;;;;;8.20;7.45;;;;;;;28.35;53.39;99005.58;1815343;79;21544;-67
2021/07/02 09:50:53;;;;;;;9.80;7.67;;;;;;;28.39;53.79;98997.02;1815661;77;21047;-68
2021/07/02 09:53:25;;;;;;;8.30;7.00;;;;;;;28.44;54.10;98992.03;1825697;77;21033;-67
2021/07/02 09:55:53;;;;;;;8.98;6.95;;;;;;;28.50;54.16;98995.47;1792005;77;21368;-64
2021/07/02 09:58:23;;;;;;;7.47;6.78;;;;;;;28.56;53.81;98994.27;1810813;78;20994;-66
2021/07/02 10:00:55;;;;;;;7.53;6.90;;;;;;;28.59;53.07;98993.67;1794524;76;21012;-68
2021/07/02 10:03:33;;;;;;;8.48;6.87;;;;;;;28.64;52.44;99005.84;1822520;77;21023;-68
2021/07/02 10:06:13;;;;;;;7.37;6.67;;;;;;;28.66;51.96;99004.98;1795645;79;20985;-67
2021/07/02 10:08:38;;;;;;;7.60;6.80;;;;;;;28.70;51.76;99001.08;1818869;77;21059;-68
2021/07/02 10:11:07;;;;;;;8.13;7.28;;;;;;;28.71;51.71;99005.44;1831160;77;21087;-68
2021/07/02 10:13:38;;;;;;;12.65;11.40;;;;;;;28.73;51.86;99005.94;1837130;77;21533;-69
2021/07/02 10:16:06;;;;;;;11.38;10.30;;;;;;;28.75;51.81;99007.24;1806586;77;21051;-67
2021/07/02 10:18:37;;;;;;;10.95;10.05;;;;;;;28.76;51.56;99004.77;1830509;77;21030;-68
2021/07/02 10:21:05;;;;;;;12.75;9.98;;;;;;;28.78;51.63;99005.81;1818341;77;21136;-69
2021/07/02 10:23:37;;;;;;;9.55;8.65;;;;;;;28.79;51.84;99000.61;1818082;77;20992;-68
2021/07/02 10:26:05;;;;;;;9.10;7.97;;;;;;;28.81;51.88;98992.34;1818090;79;21024;-68
2021/07/02 10:28:32;;;;;;;8.53;7.70;;;;;;;28.86;51.94;98990.61;1795908;78;21501;-69
2021/07/02 10:30:58;;;;;;;8.53;7.70;;;;;;;28.89;51.81;98996.84;1818201;78;21596;-67
2021/07/02 10:33:27;;;;;;;7.85;6.97;;;;;;;28.93;51.31;98995.11;1817822;77;21195;-69
2021/07/02 10:35:57;;;;;;;7.90;7.15;;;;;;;28.97;51.97;98993.37;1818284;77;21099;-68
2021/07/02 10:38:24;;;;;;;8.60;7.75;;;;;;;29.02;51.94;98991.33;1817569;79;21075;-69
2021/07/02 10:40:51;;;;;;;11.43;10.28;;;;;;;29.07;51.17;98992.33;1820107;77;21122;-68
2021/07/02 10:43:21;;;;;;;12.18;9.98;;;;;;;29.11;50.87;98991.41;1818132;77;20991;-68
2021/07/02 10:46:16;;;;;;;10.13;9.13;;;;;;;29.16;50.75;98989.14;1817709;78;21054;-68
2021/07/02 10:49:03;;;;;;;11.70;7.83;;;;;;;29.21;50.58;98985.73;1817731;77;21020;-69
2021/07/02 10:51:38;;;;;;;8.10;7.40;;;;;;;29.28;50.48;98986.64;1818002;79;21024;-68
2021/07/02 10:54:23;;;;;;;9.35;7.25;;;;;;;29.34;50.18;98992.80;1818087;79;21511;-68
2021/07/02 10:57:03;;;;;;;8.05;7.28;;;;;;;29.42;49.88;98981.14;1817879;77;20988;-68
2021/07/02 10:59:41;;;;;;;8.10;7.28;;;;;;;29.50;49.55;98989.16;1821880;77;21131;-69
2021/07/02 11:02:16;;;;;;;10.03;7.53;;;;;;;29.57;49.38;98975.28;1784985;80;21217;-68
2021/07/02 11:04:48;;;;;;;9.45;8.60;;;;;;;29.64;49.18;98976.19;1781881;80;21045;-68
2021/07/02 11:07:27;;;;;;;8.48;7.65;;;;;;;29.73;49.13;98979.02;1806306;79;21016;-68
2021/07/02 11:10:01;;;;;;;9.63;7.22;;;;;;;29.81;48.93;98974.71;1806510;79;21009;-68
2021/07/02 11:12:32;;;;;;;7.40;6.75;;;;;;;29.88;48.73;98974.51;1807286;78;21064;-69
2021/07/02 11:15:08;;;;;;;7.30;6.60;;;;;;;29.98;48.51;98979.70;1822309;78;21032;-68
2021/07/02 11:17:44;;;;;;;7.65;6.83;;;;;;;30.07;47.88;98984.39;1818245;77;21484;-68
2021/07/02 11:20:21;;;;;;;7.00;6.40;;;;;;;30.14;47.55;98979.27;1818165;77;21598;-69
2021/07/02 11:22:53;;;;;;;7.10;6.40;;;;;;;30.23;47.00;98967.80;1818136;77;21512;-69
2021/07/02 11:25:23;;;;;;;6.55;5.72;;;;;;;30.32;46.74;98962.36;1818596;77;22091;-68
2021/07/02 11:28:01;;;;;;;7.03;6.30;;;;;;;30.40;46.79;98957.45;1817852;77;21572;-69
2021/07/02 11:33:14;;;;;;;6.60;6.03;;;;;;;30.54;46.68;98949.13;1818561;77;20993;-68
2021/07/02 11:35:50;;;;;;;6.85;6.25;;;;;;;30.63;46.91;98952.66;1818191;78;21492;-69
2021/07/02 11:38:20;;;;;;;7.30;6.55;;;;;;;30.71;46.63;98949.69;1819274;77;21106;-69
2021/07/02 11:40:56;;;;;;;10.15;9.05;;;;;;;30.75;46.67;98947.91;1822801;78;21019;-68
2021/07/02 11:43:29;;;;;;;7.65;6.95;;;;;;;30.82;46.73;98947.45;1818145;77;21068;-69
2021/07/02 11:45:57;;;;;;;7.97;7.20;;;;;;;30.86;46.19;98938.24;1816889;76;21028;-69